Fort Nelson Airport


Codes: CYYE/YYE
Name: Fort Nelson Airport
City: Fort Nelson
Country: Canada
Elevation: 1253 ft.
Wikipedia:

Photos at Fort Nelson Airport


   Photos courtesy of SpottingLog. You can add your own sightings and photos by signing up for a free trial today.



No photos found.

Weather at Fort Nelson Airport


Time (UTC)DescriptionTempratureWindCloud coverageVisibilityPressureHumidity
16-Jun-2024 09:00Broken Clouds8°C2 mph, NW75%10000m1016hPa71%
16-Jun-2024 12:00Broken Clouds7°C2 mph, NW81%10000m1017hPa74%
16-Jun-2024 15:00Overcast Clouds10°C4 mph, N92%10000m1017hPa63%
16-Jun-2024 18:00Overcast Clouds15°C7 mph, NW100%10000m1016hPa41%
16-Jun-2024 21:00Overcast Clouds15°C7 mph, N100%10000m1015hPa44%
17-Jun-2024 00:00Overcast Clouds16°C9 mph, NW100%10000m1014hPa41%
17-Jun-2024 03:00Overcast Clouds14°C7 mph, W100%10000m1013hPa57%
17-Jun-2024 06:00Overcast Clouds9°C4 mph, NW100%10000m1014hPa81%
17-Jun-2024 09:00Overcast Clouds7°C2 mph, NW100%10000m1014hPa88%
17-Jun-2024 12:00Overcast Clouds8°C4 mph, W100%10000m1013hPa85%
17-Jun-2024 15:00Overcast Clouds12°C2 mph, NW100%10000m1012hPa65%
17-Jun-2024 18:00Overcast Clouds16°C7 mph, N100%10000m1012hPa39%
17-Jun-2024 21:00Overcast Clouds19°C7 mph, N100%10000m1010hPa28%
18-Jun-2024 00:00Overcast Clouds20°C7 mph, NW95%10000m1010hPa28%
18-Jun-2024 03:00Broken Clouds18°C2 mph, N54%10000m1010hPa49%
18-Jun-2024 06:00Scattered Clouds10°C2 mph, W39%10000m1012hPa67%
18-Jun-2024 09:00Few Clouds8°C2 mph, SW23%10000m1013hPa83%
18-Jun-2024 12:00Few Clouds8°C2 mph, S21%10000m1013hPa84%
18-Jun-2024 15:00Broken Clouds15°C4 mph, S73%10000m1012hPa54%
18-Jun-2024 18:00Broken Clouds21°C4 mph, S70%10000m1011hPa33%
18-Jun-2024 21:00Broken Clouds24°C2 mph, S51%10000m1009hPa26%
19-Jun-2024 00:00Broken Clouds24°C2 mph, SE66%10000m1008hPa27%
19-Jun-2024 03:00Scattered Clouds20°C4 mph, SE38%10000m1008hPa49%
19-Jun-2024 06:00Broken Clouds12°C2 mph, SW64%10000m1009hPa78%
19-Jun-2024 09:00Broken Clouds10°C4 mph, NW70%10000m1011hPa90%
19-Jun-2024 12:00Light Rain11°C4 mph, NW85%10000m1012hPa94%
19-Jun-2024 15:00Overcast Clouds15°C4 mph, N100%10000m1012hPa78%
19-Jun-2024 18:00Overcast Clouds20°C4 mph, NW96%10000m1012hPa54%
19-Jun-2024 21:00Light Rain22°C4 mph, N71%10000m1011hPa45%
20-Jun-2024 00:00Broken Clouds22°C4 mph, N71%10000m1010hPa45%
20-Jun-2024 03:00Scattered Clouds20°C0 mph, N28%10000m1011hPa61%
20-Jun-2024 06:00Broken Clouds13°C2 mph, N52%10000m1012hPa87%
20-Jun-2024 09:00Few Clouds10°C2 mph, S11%10000m1013hPa94%
20-Jun-2024 12:00Clear Sky10°C2 mph, S9%10000m1014hPa94%
20-Jun-2024 15:00Clear Sky17°C2 mph, SE3%10000m1013hPa68%
20-Jun-2024 18:00Clear Sky22°C4 mph, SE5%10000m1012hPa51%
20-Jun-2024 21:00Clear Sky25°C4 mph, SE7%10000m1011hPa40%
21-Jun-2024 00:00Clear Sky26°C4 mph, SE6%10000m1009hPa35%
21-Jun-2024 03:00Few Clouds23°C2 mph, SW16%10000m1009hPa55%
21-Jun-2024 06:00Scattered Clouds14°C2 mph, NW40%10000m1009hPa77%